sensor_id;sensor_type;location;lat;lon;timestamp;P1;durP1;ratioP1;P2;durP2;ratioP2
14890;SDS011;7537;48.014;11.590;2022-07-25T00:00:02;10.78;;;10.78;;
14890;SDS011;7537;48.014;11.590;2022-07-25T00:05:31;9.73;;;9.99;;
14890;SDS011;7537;48.014;11.590;2022-07-25T00:10:58;10.33;;;10.46;;
14890;SDS011;7537;48.014;11.590;2022-07-25T00:16:29;10.02;;;10.21;;
14890;SDS011;7537;48.014;11.590;2022-07-25T00:21:56;9.58;;;9.78;;
14890;SDS011;7537;48.014;11.590;2022-07-25T00:27:24;10.00;;;9.88;;
14890;SDS011;7537;48.014;11.590;2022-07-25T00:32:51;10.74;;;10.82;;
14890;SDS011;7537;48.014;11.590;2022-07-25T00:38:20;13.50;;;11.62;;
14890;SDS011;7537;48.014;11.590;2022-07-25T00:43:47;10.62;;;10.91;;
14890;SDS011;7537;48.014;11.590;2022-07-25T00:49:14;9.77;;;9.92;;
14890;SDS011;7537;48.014;11.590;2022-07-25T00:54:42;10.45;;;10.35;;
14890;SDS011;7537;48.014;11.590;2022-07-25T01:00:12;10.37;;;10.51;;
14890;SDS011;7537;48.014;11.590;2022-07-25T01:05:39;9.90;;;9.98;;
14890;SDS011;7537;48.014;11.590;2022-07-25T01:11:07;9.77;;;10.02;;
14890;SDS011;7537;48.014;11.590;2022-07-25T01:16:39;12.82;;;11.62;;
14890;SDS011;7537;48.014;11.590;2022-07-25T01:22:06;11.64;;;11.66;;
14890;SDS011;7537;48.014;11.590;2022-07-25T01:27:34;11.13;;;11.25;;
14890;SDS011;7537;48.014;11.590;2022-07-25T01:33:01;10.18;;;10.42;;
14890;SDS011;7537;48.014;11.590;2022-07-25T01:38:31;10.20;;;10.38;;
14890;SDS011;7537;48.014;11.590;2022-07-25T01:43:58;11.34;;;11.57;;
14890;SDS011;7537;48.014;11.590;2022-07-25T01:49:25;11.56;;;11.84;;
14890;SDS011;7537;48.014;11.590;2022-07-25T01:54:54;12.62;;;12.53;;
14890;SDS011;7537;48.014;11.590;2022-07-25T02:00:21;10.69;;;11.04;;
14890;SDS011;7537;48.014;11.590;2022-07-25T02:05:49;11.64;;;11.71;;
14890;SDS011;7537;48.014;11.590;2022-07-25T02:11:17;11.66;;;11.23;;
14890;SDS011;7537;48.014;11.590;2022-07-25T02:16:48;11.23;;;11.24;;
14890;SDS011;7537;48.014;11.590;2022-07-25T02:22:15;11.07;;;11.28;;
14890;SDS011;7537;48.014;11.590;2022-07-25T02:27:44;11.34;;;11.52;;
14890;SDS011;7537;48.014;11.590;2022-07-25T02:33:11;10.47;;;10.71;;
14890;SDS011;7537;48.014;11.590;2022-07-25T02:38:39;11.99;;;11.69;;
14890;SDS011;7537;48.014;11.590;2022-07-25T02:44:06;12.95;;;13.18;;
14890;SDS011;7537;48.014;11.590;2022-07-25T02:49:33;12.03;;;12.17;;
14890;SDS011;7537;48.014;11.590;2022-07-25T02:55:01;11.98;;;12.14;;
14890;SDS011;7537;48.014;11.590;2022-07-25T03:00:30;11.13;;;11.27;;
14890;SDS011;7537;48.014;11.590;2022-07-25T03:05:57;12.14;;;12.34;;
14890;SDS011;7537;48.014;11.590;2022-07-25T03:11:24;12.49;;;12.62;;
14890;SDS011;7537;48.014;11.590;2022-07-25T03:16:55;11.82;;;11.46;;
14890;SDS011;7537;48.014;11.590;2022-07-25T03:22:23;11.73;;;11.83;;
14890;SDS011;7537;48.014;11.590;2022-07-25T03:27:50;11.50;;;11.68;;
14890;SDS011;7537;48.014;11.590;2022-07-25T03:33:18;11.66;;;11.99;;
14890;SDS011;7537;48.014;11.590;2022-07-25T03:38:46;11.68;;;11.63;;
14890;SDS011;7537;48.014;11.590;2022-07-25T03:44:14;12.06;;;12.28;;
14890;SDS011;7537;48.014;11.590;2022-07-25T03:49:41;12.64;;;12.82;;
14890;SDS011;7537;48.014;11.590;2022-07-25T03:55:09;11.69;;;11.74;;
14890;SDS011;7537;48.014;11.590;2022-07-25T04:00:36;13.11;;;12.92;;
14890;SDS011;7537;48.014;11.590;2022-07-25T04:06:04;12.04;;;12.36;;
14890;SDS011;7537;48.014;11.590;2022-07-25T04:11:33;12.13;;;12.36;;
14890;SDS011;7537;48.014;11.590;2022-07-25T04:17:04;11.51;;;11.73;;
14890;SDS011;7537;48.014;11.590;2022-07-25T04:22:31;12.40;;;12.62;;
14890;SDS011;7537;48.014;11.590;2022-07-25T04:27:59;12.25;;;12.31;;
14890;SDS011;7537;48.014;11.590;2022-07-25T04:33:26;12.28;;;12.16;;
14890;SDS011;7537;48.014;11.590;2022-07-25T04:38:53;12.20;;;12.36;;
14890;SDS011;7537;48.014;11.590;2022-07-25T04:44:22;11.79;;;10.83;;
14890;SDS011;7537;48.014;11.590;2022-07-25T04:49:49;11.06;;;11.26;;
14890;SDS011;7537;48.014;11.590;2022-07-25T04:55:17;11.27;;;10.54;;
14890;SDS011;7537;48.014;11.590;2022-07-25T05:00:44;10.82;;;10.94;;
14890;SDS011;7537;48.014;11.590;2022-07-25T05:06:12;11.41;;;11.54;;
14890;SDS011;7537;48.014;11.590;2022-07-25T05:11:39;11.19;;;11.24;;
14890;SDS011;7537;48.014;11.590;2022-07-25T05:17:11;10.82;;;9.88;;
14890;SDS011;7537;48.014;11.590;2022-07-25T05:22:40;12.62;;;10.39;;
14890;SDS011;7537;48.014;11.590;2022-07-25T05:28:08;11.12;;;10.90;;
14890;SDS011;7537;48.014;11.590;2022-07-25T05:33:35;10.70;;;9.82;;
14890;SDS011;7537;48.014;11.590;2022-07-25T05:39:02;11.02;;;10.19;;
14890;SDS011;7537;48.014;11.590;2022-07-25T05:44:30;10.74;;;10.87;;
14890;SDS011;7537;48.014;11.590;2022-07-25T05:49:58;9.42;;;9.59;;
14890;SDS011;7537;48.014;11.590;2022-07-25T05:55:26;8.90;;;9.19;;
14890;SDS011;7537;48.014;11.590;2022-07-25T06:00:53;9.52;;;9.72;;
14890;SDS011;7537;48.014;11.590;2022-07-25T06:06:20;8.33;;;8.59;;
14890;SDS011;7537;48.014;11.590;2022-07-25T06:11:48;9.04;;;9.16;;
14890;SDS011;7537;48.014;11.590;2022-07-25T06:17:19;9.42;;;9.66;;
14890;SDS011;7537;48.014;11.590;2022-07-25T06:22:47;9.84;;;10.11;;
14890;SDS011;7537;48.014;11.590;2022-07-25T06:28:15;9.49;;;9.68;;
14890;SDS011;7537;48.014;11.590;2022-07-25T06:33:42;8.46;;;8.79;;
14890;SDS011;7537;48.014;11.590;2022-07-25T06:39:09;9.56;;;9.35;;
14890;SDS011;7537;48.014;11.590;2022-07-25T06:44:36;9.92;;;9.63;;
14890;SDS011;7537;48.014;11.590;2022-07-25T06:50:04;8.24;;;8.41;;
14890;SDS011;7537;48.014;11.590;2022-07-25T06:55:34;8.93;;;8.64;;
14890;SDS011;7537;48.014;11.590;2022-07-25T07:01:01;8.76;;;8.91;;
14890;SDS011;7537;48.014;11.590;2022-07-25T07:06:28;8.24;;;8.54;;
14890;SDS011;7537;48.014;11.590;2022-07-25T07:11:55;8.55;;;8.75;;
14890;SDS011;7537;48.014;11.590;2022-07-25T07:17:26;8.69;;;8.81;;
14890;SDS011;7537;48.014;11.590;2022-07-25T07:22:54;8.30;;;8.55;;
14890;SDS011;7537;48.014;11.590;2022-07-25T07:28:23;8.83;;;9.03;;
14890;SDS011;7537;48.014;11.590;2022-07-25T07:33:50;7.78;;;7.94;;
14890;SDS011;7537;48.014;11.590;2022-07-25T07:39:18;8.14;;;8.47;;
14890;SDS011;7537;48.014;11.590;2022-07-25T07:44:45;8.66;;;9.01;;
14890;SDS011;7537;48.014;11.590;2022-07-25T07:50:13;7.64;;;7.76;;
14890;SDS011;7537;48.014;11.590;2022-07-25T07:55:40;8.23;;;8.43;;
14890;SDS011;7537;48.014;11.590;2022-07-25T08:01:09;8.34;;;8.62;;
14890;SDS011;7537;48.014;11.590;2022-07-25T08:06:37;8.65;;;8.89;;
14890;SDS011;7537;48.014;11.590;2022-07-25T08:12:09;7.43;;;7.71;;
14890;SDS011;7537;48.014;11.590;2022-07-25T08:17:39;8.17;;;8.38;;
14890;SDS011;7537;48.014;11.590;2022-07-25T08:23:07;8.03;;;8.07;;
14890;SDS011;7537;48.014;11.590;2022-07-25T08:28:34;11.16;;;8.34;;
14890;SDS011;7537;48.014;11.590;2022-07-25T08:34:03;8.91;;;9.18;;
14890;SDS011;7537;48.014;11.590;2022-07-25T08:39:30;9.25;;;8.81;;
14890;SDS011;7537;48.014;11.590;2022-07-25T08:44:58;8.48;;;8.75;;
14890;SDS011;7537;48.014;11.590;2022-07-25T08:50:29;8.68;;;8.62;;
14890;SDS011;7537;48.014;11.590;2022-07-25T08:55:56;8.67;;;8.46;;
14890;SDS011;7537;48.014;11.590;2022-07-25T09:01:23;7.86;;;8.09;;
14890;SDS011;7537;48.014;11.590;2022-07-25T09:06:52;8.24;;;8.51;;
14890;SDS011;7537;48.014;11.590;2022-07-25T09:12:23;7.96;;;8.28;;
14890;SDS011;7537;48.014;11.590;2022-07-25T09:17:54;7.52;;;7.58;;
14890;SDS011;7537;48.014;11.590;2022-07-25T09:23:27;6.66;;;6.91;;
14890;SDS011;7537;48.014;11.590;2022-07-25T09:28:55;7.89;;;8.08;;
14890;SDS011;7537;48.014;11.590;2022-07-25T09:34:29;6.82;;;6.54;;
14890;SDS011;7537;48.014;11.590;2022-07-25T09:39:58;7.01;;;7.08;;
14890;SDS011;7537;48.014;11.590;2022-07-25T09:45:25;6.14;;;6.41;;
14890;SDS011;7537;48.014;11.590;2022-07-25T09:50:54;6.18;;;6.47;;
14890;SDS011;7537;48.014;11.590;2022-07-25T09:56:22;6.37;;;6.55;;
14890;SDS011;7537;48.014;11.590;2022-07-25T10:01:50;6.39;;;6.61;;
14890;SDS011;7537;48.014;11.590;2022-07-25T10:07:19;6.96;;;7.09;;
14890;SDS011;7537;48.014;11.590;2022-07-25T10:12:58;6.14;;;6.47;;
14890;SDS011;7537;48.014;11.590;2022-07-25T10:18:29;6.35;;;6.57;;
14890;SDS011;7537;48.014;11.590;2022-07-25T10:23:57;6.72;;;7.07;;
14890;SDS011;7537;48.014;11.590;2022-07-25T10:29:31;6.92;;;7.20;;
14890;SDS011;7537;48.014;11.590;2022-07-25T10:34:59;6.24;;;6.34;;
14890;SDS011;7537;48.014;11.590;2022-07-25T10:40:27;7.54;;;6.74;;
14890;SDS011;7537;48.014;11.590;2022-07-25T10:45:56;7.89;;;6.17;;
14890;SDS011;7537;48.014;11.590;2022-07-25T10:51:26;6.51;;;6.51;;
14890;SDS011;7537;48.014;11.590;2022-07-25T10:56:54;7.54;;;6.86;;
14890;SDS011;7537;48.014;11.590;2022-07-25T11:02:22;5.66;;;5.71;;
14890;SDS011;7537;48.014;11.590;2022-07-25T11:07:50;4.89;;;4.90;;
14890;SDS011;7537;48.014;11.590;2022-07-25T11:13:17;4.91;;;5.15;;
14890;SDS011;7537;48.014;11.590;2022-07-25T11:18:53;5.22;;;5.31;;
14890;SDS011;7537;48.014;11.590;2022-07-25T11:24:21;4.83;;;4.99;;
14890;SDS011;7537;48.014;11.590;2022-07-25T11:29:48;4.21;;;4.47;;
14890;SDS011;7537;48.014;11.590;2022-07-25T11:35:16;6.86;;;5.02;;
14890;SDS011;7537;48.014;11.590;2022-07-25T11:40:45;4.84;;;4.98;;
14890;SDS011;7537;48.014;11.590;2022-07-25T11:46:56;4.02;;;4.22;;
14890;SDS011;7537;48.014;11.590;2022-07-25T11:52:26;5.19;;;4.73;;
14890;SDS011;7537;48.014;11.590;2022-07-25T11:57:56;4.36;;;4.41;;
14890;SDS011;7537;48.014;11.590;2022-07-25T12:03:24;6.79;;;4.61;;
14890;SDS011;7537;48.014;11.590;2022-07-25T12:08:51;4.04;;;4.08;;
14890;SDS011;7537;48.014;11.590;2022-07-25T12:14:18;10.50;;;4.99;;
14890;SDS011;7537;48.014;11.590;2022-07-25T12:19:46;4.72;;;4.79;;
14890;SDS011;7537;48.014;11.590;2022-07-25T12:25:14;4.38;;;4.64;;
14890;SDS011;7537;48.014;11.590;2022-07-25T12:30:42;5.50;;;4.95;;
14890;SDS011;7537;48.014;11.590;2022-07-25T12:36:11;4.34;;;4.40;;
14890;SDS011;7537;48.014;11.590;2022-07-25T12:41:38;4.73;;;4.64;;
14890;SDS011;7537;48.014;11.590;2022-07-25T12:47:09;4.32;;;4.56;;
14890;SDS011;7537;48.014;11.590;2022-07-25T12:52:36;4.78;;;5.01;;
14890;SDS011;7537;48.014;11.590;2022-07-25T12:58:05;4.31;;;4.58;;
14890;SDS011;7537;48.014;11.590;2022-07-25T13:03:32;4.36;;;4.55;;
14890;SDS011;7537;48.014;11.590;2022-07-25T13:08:59;4.51;;;4.69;;
14890;SDS011;7537;48.014;11.590;2022-07-25T13:14:27;5.79;;;5.43;;
14890;SDS011;7537;48.014;11.590;2022-07-25T13:19:55;5.74;;;5.09;;
14890;SDS011;7537;48.014;11.590;2022-07-25T13:25:22;4.79;;;4.89;;
14890;SDS011;7537;48.014;11.590;2022-07-25T13:30:49;4.78;;;4.66;;
14890;SDS011;7537;48.014;11.590;2022-07-25T13:36:17;4.26;;;4.33;;
14890;SDS011;7537;48.014;11.590;2022-07-25T13:41:45;4.52;;;4.71;;
14890;SDS011;7537;48.014;11.590;2022-07-25T13:47:16;6.63;;;4.79;;
14890;SDS011;7537;48.014;11.590;2022-07-25T13:52:43;5.21;;;5.20;;
14890;SDS011;7537;48.014;11.590;2022-07-25T13:58:11;5.33;;;5.56;;
14890;SDS011;7537;48.014;11.590;2022-07-25T14:03:38;4.50;;;4.62;;
14890;SDS011;7537;48.014;11.590;2022-07-25T14:09:05;4.94;;;5.19;;
14890;SDS011;7537;48.014;11.590;2022-07-25T14:14:34;4.67;;;4.84;;
14890;SDS011;7537;48.014;11.590;2022-07-25T14:20:01;4.40;;;4.66;;
14890;SDS011;7537;48.014;11.590;2022-07-25T14:25:28;4.07;;;4.29;;
14890;SDS011;7537;48.014;11.590;2022-07-25T14:30:56;4.19;;;4.37;;
14890;SDS011;7537;48.014;11.590;2022-07-25T14:36:23;5.28;;;5.57;;
14890;SDS011;7537;48.014;11.590;2022-07-25T14:41:50;4.31;;;4.48;;
14890;SDS011;7537;48.014;11.590;2022-07-25T14:47:22;4.36;;;4.00;;
14890;SDS011;7537;48.014;11.590;2022-07-25T14:52:50;4.00;;;4.26;;
14890;SDS011;7537;48.014;11.590;2022-07-25T14:58:17;4.16;;;4.44;;
14890;SDS011;7537;48.014;11.590;2022-07-25T15:03:44;5.42;;;4.47;;
14890;SDS011;7537;48.014;11.590;2022-07-25T15:09:27;4.92;;;4.83;;
14890;SDS011;7537;48.014;11.590;2022-07-25T15:14:54;4.57;;;4.74;;
14890;SDS011;7537;48.014;11.590;2022-07-25T15:20:23;4.54;;;4.74;;
14890;SDS011;7537;48.014;11.590;2022-07-25T15:25:51;4.31;;;3.96;;
14890;SDS011;7537;48.014;11.590;2022-07-25T15:31:18;4.59;;;4.22;;
14890;SDS011;7537;48.014;11.590;2022-07-25T15:36:45;4.18;;;4.32;;
14890;SDS011;7537;48.014;11.590;2022-07-25T15:42:13;3.74;;;3.94;;
14890;SDS011;7537;48.014;11.590;2022-07-25T15:47:40;3.92;;;4.03;;
14890;SDS011;7537;48.014;11.590;2022-07-25T15:53:09;4.51;;;4.36;;
14890;SDS011;7537;48.014;11.590;2022-07-25T15:58:37;5.09;;;3.87;;
14890;SDS011;7537;48.014;11.590;2022-07-25T16:04:04;4.78;;;4.14;;
14890;SDS011;7537;48.014;11.590;2022-07-25T16:09:35;4.56;;;3.61;;
14890;SDS011;7537;48.014;11.590;2022-07-25T16:15:02;4.29;;;3.41;;
14890;SDS011;7537;48.014;11.590;2022-07-25T16:20:31;3.44;;;3.59;;
14890;SDS011;7537;48.014;11.590;2022-07-25T16:25:58;3.21;;;3.36;;
14890;SDS011;7537;48.014;11.590;2022-07-25T16:31:25;3.43;;;3.67;;
14890;SDS011;7537;48.014;11.590;2022-07-25T16:36:54;3.18;;;3.31;;
14890;SDS011;7537;48.014;11.590;2022-07-25T16:42:21;3.42;;;3.46;;
14890;SDS011;7537;48.014;11.590;2022-07-25T16:47:48;3.38;;;3.53;;
14890;SDS011;7537;48.014;11.590;2022-07-25T16:53:16;6.14;;;4.13;;
14890;SDS011;7537;48.014;11.590;2022-07-25T16:58:43;4.18;;;4.24;;
14890;SDS011;7537;48.014;11.590;2022-07-25T17:05:40;3.92;;;4.03;;
14890;SDS011;7537;48.014;11.590;2022-07-25T17:11:07;3.93;;;3.81;;
14890;SDS011;7537;48.014;11.590;2022-07-25T17:16:36;4.64;;;4.00;;
14890;SDS011;7537;48.014;11.590;2022-07-25T17:22:05;4.03;;;4.11;;
14890;SDS011;7537;48.014;11.590;2022-07-25T17:27:32;9.10;;;4.83;;
14890;SDS011;7537;48.014;11.590;2022-07-25T17:32:58;4.55;;;4.68;;
14890;SDS011;7537;48.014;11.590;2022-07-25T17:38:25;4.47;;;4.66;;
14890;SDS011;7537;48.014;11.590;2022-07-25T17:44:40;4.62;;;4.81;;
14890;SDS011;7537;48.014;11.590;2022-07-25T17:50:14;4.24;;;4.44;;
14890;SDS011;7537;48.014;11.590;2022-07-25T17:55:51;5.39;;;5.55;;
14890;SDS011;7537;48.014;11.590;2022-07-25T18:01:33;6.97;;;5.69;;
14890;SDS011;7537;48.014;11.590;2022-07-25T18:07:10;4.92;;;4.61;;
14890;SDS011;7537;48.014;11.590;2022-07-25T18:12:49;4.53;;;4.74;;
14890;SDS011;7537;48.014;11.590;2022-07-25T18:18:17;4.14;;;4.35;;
14890;SDS011;7537;48.014;11.590;2022-07-25T18:23:45;4.78;;;4.87;;
14890;SDS011;7537;48.014;11.590;2022-07-25T18:29:13;4.94;;;5.01;;
14890;SDS011;7537;48.014;11.590;2022-07-25T18:35:04;5.49;;;5.06;;
14890;SDS011;7537;48.014;11.590;2022-07-25T18:40:37;5.36;;;5.28;;
14890;SDS011;7537;48.014;11.590;2022-07-25T18:46:25;4.83;;;5.04;;
14890;SDS011;7537;48.014;11.590;2022-07-25T18:51:53;4.54;;;4.73;;
14890;SDS011;7537;48.014;11.590;2022-07-25T18:57:20;5.37;;;5.51;;
14890;SDS011;7537;48.014;11.590;2022-07-25T19:02:56;5.78;;;6.01;;
14890;SDS011;7537;48.014;11.590;2022-07-25T19:09:00;6.27;;;6.37;;
14890;SDS011;7537;48.014;11.590;2022-07-25T19:14:30;5.75;;;5.89;;
14890;SDS011;7537;48.014;11.590;2022-07-25T19:19:57;6.92;;;5.75;;
14890;SDS011;7537;48.014;11.590;2022-07-25T19:25:29;9.40;;;6.41;;
14890;SDS011;7537;48.014;11.590;2022-07-25T19:30:56;5.83;;;5.60;;
14890;SDS011;7537;48.014;11.590;2022-07-25T19:36:24;5.86;;;6.01;;
14890;SDS011;7537;48.014;11.590;2022-07-25T19:41:51;5.58;;;5.77;;
14890;SDS011;7537;48.014;11.590;2022-07-25T19:47:20;5.06;;;5.24;;
14890;SDS011;7537;48.014;11.590;2022-07-25T19:52:48;5.70;;;6.01;;
14890;SDS011;7537;48.014;11.590;2022-07-25T19:58:15;7.48;;;6.73;;
14890;SDS011;7537;48.014;11.590;2022-07-25T20:03:42;6.19;;;5.87;;
14890;SDS011;7537;48.014;11.590;2022-07-25T20:09:13;8.25;;;6.33;;
14890;SDS011;7537;48.014;11.590;2022-07-25T20:14:42;6.19;;;6.28;;
14890;SDS011;7537;48.014;11.590;2022-07-25T20:20:11;6.57;;;6.16;;
14890;SDS011;7537;48.014;11.590;2022-07-25T20:25:38;9.91;;;6.03;;
14890;SDS011;7537;48.014;11.590;2022-07-25T20:31:06;13.24;;;7.90;;
14890;SDS011;7537;48.014;11.590;2022-07-25T20:36:33;11.84;;;10.01;;
14890;SDS011;7537;48.014;11.590;2022-07-25T20:42:01;9.32;;;8.43;;
14890;SDS011;7537;48.014;11.590;2022-07-25T20:47:28;11.70;;;9.88;;
14890;SDS011;7537;48.014;11.590;2022-07-25T20:52:57;9.82;;;9.84;;
14890;SDS011;7537;48.014;11.590;2022-07-25T20:58:24;10.53;;;9.68;;
14890;SDS011;7537;48.014;11.590;2022-07-25T21:03:51;10.96;;;9.28;;
14890;SDS011;7537;48.014;11.590;2022-07-25T21:09:22;14.59;;;9.75;;
14890;SDS011;7537;48.014;11.590;2022-07-25T21:14:49;11.10;;;8.80;;
14890;SDS011;7537;48.014;11.590;2022-07-25T21:20:17;11.63;;;9.68;;
14890;SDS011;7537;48.014;11.590;2022-07-25T21:25:45;14.32;;;10.07;;
14890;SDS011;7537;48.014;11.590;2022-07-25T21:31:13;8.91;;;9.10;;
14890;SDS011;7537;48.014;11.590;2022-07-25T21:36:40;10.44;;;7.71;;
14890;SDS011;7537;48.014;11.590;2022-07-25T21:42:07;9.36;;;8.36;;
14890;SDS011;7537;48.014;11.590;2022-07-25T21:47:35;8.56;;;8.35;;
14890;SDS011;7537;48.014;11.590;2022-07-25T21:53:02;10.60;;;8.10;;
14890;SDS011;7537;48.014;11.590;2022-07-25T21:58:31;11.58;;;7.26;;
14890;SDS011;7537;48.014;11.590;2022-07-25T22:03:58;7.51;;;7.24;;
14890;SDS011;7537;48.014;11.590;2022-07-25T22:09:29;7.13;;;6.94;;
14890;SDS011;7537;48.014;11.590;2022-07-25T22:14:56;7.16;;;7.18;;
14890;SDS011;7537;48.014;11.590;2022-07-25T22:20:24;11.06;;;7.94;;
14890;SDS011;7537;48.014;11.590;2022-07-25T22:25:51;6.61;;;6.60;;
14890;SDS011;7537;48.014;11.590;2022-07-25T22:31:19;7.06;;;6.24;;
14890;SDS011;7537;48.014;11.590;2022-07-25T22:36:47;7.05;;;6.21;;
14890;SDS011;7537;48.014;11.590;2022-07-25T22:42:14;8.44;;;6.40;;
14890;SDS011;7537;48.014;11.590;2022-07-25T22:47:41;5.77;;;5.44;;
14890;SDS011;7537;48.014;11.590;2022-07-25T22:53:09;7.76;;;5.82;;
14890;SDS011;7537;48.014;11.590;2022-07-25T22:58:36;4.54;;;4.64;;
14890;SDS011;7537;48.014;11.590;2022-07-25T23:04:03;8.37;;;5.09;;
14890;SDS011;7537;48.014;11.590;2022-07-25T23:09:34;7.20;;;5.05;;
14890;SDS011;7537;48.014;11.590;2022-07-25T23:15:03;4.94;;;4.56;;
14890;SDS011;7537;48.014;11.590;2022-07-25T23:20:32;5.21;;;4.47;;
14890;SDS011;7537;48.014;11.590;2022-07-25T23:26:03;11.07;;;5.12;;
14890;SDS011;7537;48.014;11.590;2022-07-25T23:31:30;5.38;;;5.17;;
14890;SDS011;7537;48.014;11.590;2022-07-25T23:36:57;6.54;;;5.72;;
14890;SDS011;7537;48.014;11.590;2022-07-25T23:42:25;12.02;;;6.41;;
14890;SDS011;7537;48.014;11.590;2022-07-25T23:47:53;6.64;;;5.62;;
14890;SDS011;7537;48.014;11.590;2022-07-25T23:53:20;9.28;;;5.61;;
14890;SDS011;7537;48.014;11.590;2022-07-25T23:58:49;5.16;;;5.16;;
